Terminal Aerodrome Forecast
Issued by NWS

Home | Current Version | Previous Version | Text Only | Print | Product List | Glossary On
Versions: 1 2 3 4 5 6 7 8 9 10 11 12 13 14 15 16 17 18 19 20 21 22 23 24 25 26 27 28
446
FTUS44 KOHX 251201 AAA
TAFCKV
TAF AMD
KCKV 251201Z 2512/2612 VRB03KT 4SM BR SCT002 SCT250
      TEMPO 2512/2514 1/4SM FG BKN001
     FM251500 08003KT P6SM FEW250
     FM251800 08005KT P6SM SCT050
     FM260100 07002KT P6SM FEW050
     FM260900 00000KT 4SM BR BKN012=

USA.gov is the U.S. government's official web portal to all federal, state and local government web resources and services.